createdAt,value
2023-04-02T00:00:09.994Z,99169.56
2023-04-02T00:02:48.170Z,99174.69
2023-04-02T00:05:19.704Z,99172.88
2023-04-02T00:07:50.565Z,99179.88
2023-04-02T00:10:35.358Z,99183.31
2023-04-02T00:13:10.709Z,99182.13
2023-04-02T00:15:40.629Z,99181.13
2023-04-02T00:18:13.900Z,99188.28
2023-04-02T00:20:46.845Z,99194.94
2023-04-02T00:23:15.705Z,99188.75
2023-04-02T00:25:45.669Z,99184.28
2023-04-02T00:28:21.550Z,99202.47
2023-04-02T00:30:51.229Z,99199.00
2023-04-02T00:33:21.711Z,99201.66
2023-04-02T00:35:51.146Z,99196.44
2023-04-02T00:38:24.908Z,99193.16
2023-04-02T00:40:56.947Z,99203.41
2023-04-02T00:43:30.904Z,99197.41
2023-04-02T00:46:03.955Z,99203.31
2023-04-02T00:48:31.764Z,99207.56
2023-04-02T00:51:15.950Z,99207.59
2023-04-02T00:53:47.122Z,99218.66
2023-04-02T00:56:37.794Z,99212.03
2023-04-02T00:59:05.592Z,99205.47
2023-04-02T01:01:42.743Z,99217.59
2023-04-02T01:04:34.330Z,99209.25
2023-04-02T01:07:10.643Z,99204.03
2023-04-02T01:09:53.892Z,99211.78
2023-04-02T01:12:40.494Z,99207.06
2023-04-02T01:15:17.689Z,99211.91
2023-04-02T01:18:38.251Z,99189.97
2023-04-02T01:21:08.741Z,99208.38
2023-04-02T01:23:39.618Z,99211.56
2023-04-02T01:26:19.180Z,99213.22
2023-04-02T01:29:01.562Z,99217.59
2023-04-02T01:31:30.676Z,99215.19
2023-04-02T01:33:58.290Z,99209.19
2023-04-02T01:36:32.322Z,99215.28
2023-04-02T01:39:14.438Z,99198.47
2023-04-02T01:42:17.260Z,99200.50
2023-04-02T01:44:53.806Z,99207.25
2023-04-02T01:47:29.142Z,99202.19
2023-04-02T01:50:05.773Z,99199.75
2023-04-02T01:52:55.667Z,99206.81
2023-04-02T01:55:55.426Z,99200.06
2023-04-02T01:58:26.524Z,99197.13
2023-04-02T02:01:16.630Z,99206.81
2023-04-02T02:03:45.678Z,99203.00
2023-04-02T02:06:16.723Z,99209.06
2023-04-02T02:09:01.483Z,99205.53
2023-04-02T02:11:31.242Z,99208.94
2023-04-02T02:14:01.813Z,99204.59
2023-04-02T02:16:32.093Z,99192.28
2023-04-02T02:19:03.394Z,99198.41
2023-04-02T02:21:44.806Z,99207.31
2023-04-02T02:24:23.457Z,99206.44
2023-04-02T02:27:02.176Z,99205.53
2023-04-02T02:29:35.342Z,99211.47
2023-04-02T02:32:07.426Z,99203.56
2023-04-02T02:34:48.374Z,99213.19
2023-04-02T02:37:24.274Z,99218.41
2023-04-02T02:39:56.357Z,99223.44
2023-04-02T02:42:37.167Z,99228.72
2023-04-02T02:45:13.043Z,99224.25
2023-04-02T02:47:43.886Z,99216.50
2023-04-02T02:50:20.925Z,99225.88
2023-04-02T02:52:58.018Z,99219.56
2023-04-02T02:55:34.527Z,99217.09
2023-04-02T02:58:23.737Z,99222.09
2023-04-02T03:01:12.254Z,99219.16
2023-04-02T03:03:42.832Z,99226.91
2023-04-02T03:06:16.847Z,99228.56
2023-04-02T03:09:25.756Z,99236.66
2023-04-02T03:12:08.688Z,99232.97
2023-04-02T03:14:43.870Z,99226.69
2023-04-02T03:17:19.885Z,99246.53
2023-04-02T03:19:55.454Z,99237.16
2023-04-02T03:22:41.282Z,99249.13
2023-04-02T03:25:33.686Z,99244.06
2023-04-02T03:28:08.726Z,99243.97
2023-04-02T03:30:39.148Z,99245.59
2023-04-02T03:33:30.574Z,99251.88
2023-04-02T03:36:21.283Z,99249.91
2023-04-02T03:39:17.519Z,99249.25
2023-04-02T03:42:17.978Z,99247.84
2023-04-02T03:44:56.049Z,99249.13
2023-04-02T03:47:34.355Z,99248.03
2023-04-02T03:50:16.083Z,99256.66
2023-04-02T03:52:45.076Z,99261.78
2023-04-02T03:55:25.976Z,99250.53
2023-04-02T03:58:09.058Z,99255.25
2023-04-02T04:00:42.541Z,99257.03
2023-04-02T04:03:19.352Z,99252.22
2023-04-02T04:06:06.370Z,99246.34
2023-04-02T04:08:50.550Z,99248.28
2023-04-02T04:11:25.105Z,99252.53
2023-04-02T04:14:14.749Z,99249.53
2023-04-02T04:16:54.702Z,99251.09
2023-04-02T04:19:32.619Z,99256.94
2023-04-02T04:22:15.410Z,99253.56
2023-04-02T04:24:45.961Z,99255.84
2023-04-02T04:27:20.572Z,99275.47
2023-04-02T04:29:58.234Z,99264.19
2023-04-02T04:32:33.889Z,99261.47
2023-04-02T04:35:26.796Z,99270.44
2023-04-02T04:38:14.507Z,99280.63
2023-04-02T04:40:52.432Z,99282.91
2023-04-02T04:43:30.229Z,99284.81
2023-04-02T04:46:09.501Z,99281.53
2023-04-02T04:48:47.595Z,99284.56
2023-04-02T04:51:30.161Z,99283.78
2023-04-02T04:53:58.471Z,99280.94
2023-04-02T04:56:32.238Z,99285.19
2023-04-02T04:59:32.439Z,99286.94
2023-04-02T05:02:11.680Z,99283.50
2023-04-02T05:04:42.473Z,99287.16
2023-04-02T05:07:19.312Z,99273.31
2023-04-02T05:10:11.930Z,99285.03
2023-04-02T05:12:48.701Z,99283.97
2023-04-02T05:15:37.399Z,99296.13
2023-04-02T05:18:11.981Z,99289.19
2023-04-02T05:20:53.725Z,99286.63
2023-04-02T05:23:28.590Z,99294.47
2023-04-02T05:26:11.973Z,99298.97
2023-04-02T05:29:10.942Z,99299.13
2023-04-02T05:31:48.991Z,99304.19
2023-04-02T05:34:25.725Z,99301.50
2023-04-02T05:36:55.780Z,99305.91
2023-04-02T05:39:25.873Z,99300.75
2023-04-02T05:42:06.110Z,99306.16
2023-04-02T05:44:59.789Z,99309.78
2023-04-02T05:47:31.449Z,99302.81
2023-04-02T05:50:24.933Z,99310.78
2023-04-02T05:53:09.515Z,99310.22
2023-04-02T05:55:55.992Z,99315.53
2023-04-02T05:58:56.305Z,99309.69
2023-04-02T06:01:38.178Z,99322.81
2023-04-02T06:04:31.151Z,99313.38
2023-04-02T06:07:18.311Z,99323.81
2023-04-02T06:10:17.001Z,99315.25
2023-04-02T06:12:55.131Z,99308.00
2023-04-02T06:15:23.946Z,99310.31
2023-04-02T06:18:08.020Z,99308.53
2023-04-02T06:20:36.148Z,99311.66
2023-04-02T06:23:15.666Z,99322.28
2023-04-02T06:25:57.863Z,99312.44
2023-04-02T06:28:40.854Z,99312.66
2023-04-02T06:31:23.467Z,99309.91
2023-04-02T06:33:54.738Z,99312.09
2023-04-02T06:36:28.727Z,99312.41
2023-04-02T06:39:07.845Z,99307.22
2023-04-02T06:41:36.336Z,99316.00
2023-04-02T06:44:26.368Z,99316.31
2023-04-02T06:47:17.632Z,99308.09
2023-04-02T06:49:58.602Z,99314.25
2023-04-02T06:52:35.064Z,99303.97
2023-04-02T06:55:27.333Z,99308.78
2023-04-02T06:57:55.332Z,99311.25
2023-04-02T07:00:43.736Z,99309.88
2023-04-02T07:03:21.847Z,99314.31
2023-04-02T07:05:49.516Z,99323.94
2023-04-02T07:08:17.169Z,99322.13
2023-04-02T07:10:44.657Z,99328.59
2023-04-02T07:13:21.787Z,99322.41
2023-04-02T07:15:53.064Z,99314.75
2023-04-02T07:18:27.674Z,99323.22
2023-04-02T07:20:56.229Z,99321.34
2023-04-02T07:23:24.830Z,99324.78
2023-04-02T07:25:54.909Z,99329.72
2023-04-02T07:28:23.327Z,99337.63
2023-04-02T07:30:51.874Z,99344.41
2023-04-02T07:33:23.573Z,99335.66
2023-04-02T07:35:53.383Z,99336.13
2023-04-02T07:38:21.318Z,99338.56
2023-04-02T07:40:48.905Z,99337.91
2023-04-02T07:43:16.450Z,99336.25
2023-04-02T07:45:43.938Z,99334.66
2023-04-02T07:48:13.803Z,99338.72
2023-04-02T07:50:41.893Z,99344.41
2023-04-02T07:53:27.833Z,99343.69
2023-04-02T07:55:56.733Z,99338.38
2023-04-02T07:58:24.484Z,99347.81
2023-04-02T08:00:52.096Z,99338.47
2023-04-02T08:03:20.425Z,99358.88
2023-04-02T08:05:54.026Z,99343.06
2023-04-02T08:08:23.295Z,99348.09
2023-04-02T08:10:51.567Z,99347.69
2023-04-02T08:13:19.262Z,99345.00
2023-04-02T08:15:49.162Z,99350.13
2023-04-02T08:18:16.900Z,99358.75
2023-04-02T08:20:48.981Z,99359.97
2023-04-02T08:23:18.123Z,99365.53
2023-04-02T08:25:46.701Z,99358.56
2023-04-02T08:28:14.547Z,99353.97
2023-04-02T08:30:42.640Z,99357.31
2023-04-02T08:33:10.993Z,99366.81
2023-04-02T08:35:38.886Z,99362.47
2023-04-02T08:38:07.024Z,99367.41
2023-04-02T08:40:38.674Z,99364.34
2023-04-02T08:43:24.866Z,99365.84
2023-04-02T08:46:06.628Z,99364.31
2023-04-02T08:48:37.217Z,99386.34
2023-04-02T08:51:06.259Z,99371.63
2023-04-02T08:53:37.919Z,99364.16
2023-04-02T08:56:19.066Z,99369.56
2023-04-02T08:59:12.961Z,99369.22
2023-04-02T09:01:52.496Z,99360.06
2023-04-02T09:04:26.285Z,99347.91
2023-04-02T09:06:56.793Z,99363.47
2023-04-02T09:09:25.838Z,99372.03
2023-04-02T09:12:04.426Z,99369.00
2023-04-02T09:14:34.829Z,99356.38
2023-04-02T09:17:04.234Z,99358.19
2023-04-02T09:19:37.794Z,99362.75
2023-04-02T09:22:07.713Z,99361.72
2023-04-02T09:24:37.832Z,99361.72
2023-04-02T09:27:19.768Z,99366.84
2023-04-02T09:29:52.452Z,99357.28
2023-04-02T09:32:35.702Z,99354.72
2023-04-02T09:35:22.454Z,99371.28
2023-04-02T09:38:11.693Z,99363.94
2023-04-02T09:40:54.271Z,99369.97
2023-04-02T09:43:24.588Z,99368.94
2023-04-02T09:46:00.182Z,99369.25
2023-04-02T09:49:01.067Z,99374.00
2023-04-02T09:51:38.465Z,99367.75
2023-04-02T09:54:13.860Z,99369.25
2023-04-02T09:57:00.931Z,99366.19
2023-04-02T09:59:28.987Z,99366.88
2023-04-02T10:01:56.772Z,99366.81
2023-04-02T10:04:47.356Z,99367.28
2023-04-02T10:07:46.025Z,99365.56
2023-04-02T10:10:36.913Z,99365.50
2023-04-02T10:13:18.918Z,99373.72
2023-04-02T10:15:46.525Z,99369.06
2023-04-02T10:18:21.973Z,99375.94
2023-04-02T10:20:52.846Z,99371.06
2023-04-02T10:23:24.726Z,99369.53
2023-04-02T10:26:36.510Z,99371.06
2023-04-02T10:29:23.222Z,99367.16
2023-04-02T10:32:14.139Z,99364.16
2023-04-02T10:34:49.478Z,99368.88
2023-04-02T10:37:47.795Z,99368.53
2023-04-02T10:40:24.062Z,99367.25
2023-04-02T10:43:07.291Z,99362.66
2023-04-02T10:45:47.115Z,99358.44
2023-04-02T10:48:31.812Z,99348.22
2023-04-02T10:51:50.515Z,99344.38
2023-04-02T10:54:28.066Z,99346.25
2023-04-02T10:57:14.203Z,99352.47
2023-04-02T10:59:49.485Z,99338.72
2023-04-02T11:02:50.942Z,99350.69
2023-04-02T11:05:31.301Z,99341.91
2023-04-02T11:08:28.129Z,99345.13
2023-04-02T11:11:04.894Z,99341.41
2023-04-02T11:13:41.523Z,99352.59
2023-04-02T11:16:15.292Z,99341.88
2023-04-02T11:19:03.349Z,99337.34
2023-04-02T11:21:30.901Z,99323.06
2023-04-02T11:24:03.013Z,99330.22
2023-04-02T11:26:47.506Z,99346.44
2023-04-02T11:29:28.093Z,99344.34
2023-04-02T11:32:15.887Z,99349.25
2023-04-02T11:35:03.031Z,99353.56
2023-04-02T11:37:44.947Z,99347.06
2023-04-02T11:40:13.934Z,99348.53
2023-04-02T11:42:50.048Z,99346.13
2023-04-02T11:45:23.451Z,99355.22
2023-04-02T11:48:00.832Z,99341.50
2023-04-02T11:50:35.779Z,99348.03
2023-04-02T11:53:12.336Z,99345.41
2023-04-02T11:55:41.781Z,99355.19
2023-04-02T11:58:46.777Z,99343.06
2023-04-02T12:01:32.978Z,99359.81
2023-04-02T12:04:09.383Z,99344.91
2023-04-02T12:06:48.766Z,99359.13
2023-04-02T12:09:26.147Z,99356.47
2023-04-02T12:11:54.705Z,99357.63
2023-04-02T12:14:36.935Z,99353.53
2023-04-02T12:17:15.517Z,99354.13
2023-04-02T12:19:51.703Z,99357.72
2023-04-02T12:22:31.018Z,99353.59
2023-04-02T12:25:02.116Z,99357.78
2023-04-02T12:27:30.776Z,99349.41
2023-04-02T12:30:30.836Z,99343.31
2023-04-02T12:33:14.988Z,99339.28
2023-04-02T12:35:44.280Z,99335.63
2023-04-02T12:38:22.380Z,99335.03
2023-04-02T12:41:01.461Z,99348.28
2023-04-02T12:43:35.848Z,99344.63
2023-04-02T12:46:06.851Z,99347.03
2023-04-02T12:48:36.104Z,99354.53
2023-04-02T12:51:04.708Z,99356.13
2023-04-02T12:53:39.778Z,99353.28
2023-04-02T12:56:10.793Z,99358.13
2023-04-02T12:58:41.568Z,99355.97
2023-04-02T13:01:31.574Z,99353.13
2023-04-02T13:04:13.833Z,99359.41
2023-04-02T13:06:47.457Z,99350.19
2023-04-02T13:09:35.935Z,99361.50
2023-04-02T13:12:03.920Z,99364.44
2023-04-02T13:14:31.721Z,99361.56
2023-04-02T13:16:59.313Z,99363.22
2023-04-02T13:19:34.001Z,99364.09
2023-04-02T13:22:03.222Z,99357.94
2023-04-02T13:24:32.878Z,99359.44
2023-04-02T13:27:04.188Z,99363.03
2023-04-02T13:29:31.958Z,99372.38
2023-04-02T13:32:02.790Z,99368.75
2023-04-02T13:34:31.046Z,99362.75
2023-04-02T13:36:59.202Z,99364.38
2023-04-02T13:39:27.311Z,99362.66
2023-04-02T13:41:57.455Z,99360.19
2023-04-02T13:44:27.068Z,99362.88
2023-04-02T13:46:55.791Z,99351.63
2023-04-02T13:49:24.910Z,99363.13
2023-04-02T13:51:55.127Z,99361.56
2023-04-02T13:54:31.530Z,99360.00
2023-04-02T13:56:59.360Z,99359.03
2023-04-02T13:59:27.429Z,99359.09
2023-04-02T14:02:13.500Z,99364.09
2023-04-02T14:04:50.533Z,99362.34
2023-04-02T14:07:27.112Z,99362.28
2023-04-02T14:10:12.719Z,99366.69
2023-04-02T14:12:52.151Z,99370.16
2023-04-02T14:15:28.144Z,99364.00
2023-04-02T14:18:24.878Z,99361.38
2023-04-02T14:21:07.231Z,99368.25
2023-04-02T14:23:55.535Z,99374.28
2023-04-02T14:26:52.434Z,99364.69
2023-04-02T14:29:51.266Z,99370.81
2023-04-02T14:32:49.122Z,99366.47
2023-04-02T14:35:19.631Z,99362.91
2023-04-02T14:38:02.414Z,99362.97
2023-04-02T14:40:38.544Z,99359.50
2023-04-02T14:43:15.577Z,99352.56
2023-04-02T14:45:59.541Z,99359.66
2023-04-02T14:48:55.987Z,99350.25
2023-04-02T14:51:41.719Z,99356.94
2023-04-02T14:54:28.278Z,99354.34
2023-04-02T14:57:21.637Z,99352.41
2023-04-02T15:00:11.867Z,99351.72
2023-04-02T15:02:47.323Z,99352.50
2023-04-02T15:05:17.628Z,99354.09
2023-04-02T15:08:13.727Z,99357.59
2023-04-02T15:10:52.995Z,99360.16
2023-04-02T15:13:27.244Z,99362.66
2023-04-02T15:16:28.345Z,99361.09
2023-04-02T15:18:57.953Z,99349.47
2023-04-02T15:21:31.310Z,99356.28
2023-04-02T15:24:09.458Z,99358.00
2023-04-02T15:26:36.913Z,99356.31
2023-04-02T15:29:29.018Z,99364.06
2023-04-02T15:32:10.312Z,99364.03
2023-04-02T15:34:53.998Z,99376.03
2023-04-02T15:37:56.491Z,99362.22
2023-04-02T15:40:30.436Z,99362.06
2023-04-02T15:43:15.993Z,99364.56
2023-04-02T15:46:01.207Z,99366.28
2023-04-02T15:48:43.663Z,99372.19
2023-04-02T15:51:23.035Z,99372.06
2023-04-02T15:54:21.184Z,99369.41
2023-04-02T15:57:00.616Z,99373.56
2023-04-02T15:59:40.985Z,99374.28
2023-04-02T16:02:30.199Z,99374.28
2023-04-02T16:05:17.214Z,99375.78
2023-04-02T16:08:12.670Z,99388.78
2023-04-02T16:10:43.056Z,99389.41
2023-04-02T16:13:19.372Z,99380.00
2023-04-02T16:15:58.936Z,99393.00
2023-04-02T16:18:37.590Z,99398.91
2023-04-02T16:21:06.699Z,99397.41
2023-04-02T16:23:37.075Z,99400.97
2023-04-02T16:26:29.445Z,99403.72
2023-04-02T16:29:27.140Z,99409.13
2023-04-02T16:32:21.569Z,99407.41
2023-04-02T16:35:38.175Z,99410.00
2023-04-02T16:38:20.028Z,99419.25
2023-04-02T16:41:09.346Z,99426.00
2023-04-02T16:43:57.162Z,99428.31
2023-04-02T16:46:43.735Z,99417.09
2023-04-02T16:49:51.219Z,99422.41
2023-04-02T16:52:41.326Z,99429.25
2023-04-02T16:55:14.497Z,99422.47
2023-04-02T16:58:02.849Z,99432.06
2023-04-02T17:00:36.437Z,99442.31
2023-04-02T17:03:36.172Z,99440.00
2023-04-02T17:06:17.664Z,99434.00
2023-04-02T17:09:08.399Z,99433.19
2023-04-02T17:12:13.527Z,99436.72
2023-04-02T17:15:09.317Z,99430.63
2023-04-02T17:17:43.315Z,99428.88
2023-04-02T17:20:29.483Z,99426.59
2023-04-02T17:22:57.572Z,99433.34
2023-04-02T17:25:30.474Z,99436.72
2023-04-02T17:27:58.385Z,99441.69
2023-04-02T17:30:47.244Z,99446.03
2023-04-02T17:33:17.614Z,99447.50
2023-04-02T17:36:00.173Z,99446.69
2023-04-02T17:38:45.338Z,99450.06
2023-04-02T17:41:40.472Z,99449.88
2023-04-02T17:44:18.465Z,99445.44
2023-04-02T17:46:54.993Z,99452.16
2023-04-02T17:49:34.764Z,99452.88
2023-04-02T17:52:11.703Z,99455.38
2023-04-02T17:55:19.156Z,99459.03
2023-04-02T17:58:01.680Z,99458.91
2023-04-02T18:00:52.433Z,99456.53
2023-04-02T18:03:44.389Z,99464.91
2023-04-02T18:06:18.584Z,99462.97
2023-04-02T18:08:57.832Z,99463.03
2023-04-02T18:11:44.430Z,99466.47
2023-04-02T18:14:42.672Z,99464.66
2023-04-02T18:17:34.503Z,99466.34
2023-04-02T18:20:21.001Z,99467.19
2023-04-02T18:23:26.061Z,99466.19
2023-04-02T18:26:05.823Z,99470.38
2023-04-02T18:28:42.490Z,99480.53
2023-04-02T18:31:41.153Z,99476.28
2023-04-02T18:34:33.292Z,99466.66
2023-04-02T18:37:16.770Z,99471.09
2023-04-02T18:40:03.150Z,99476.19
2023-04-02T18:42:49.050Z,99480.59
2023-04-02T18:45:48.338Z,99478.88
2023-04-02T18:48:41.380Z,99479.72
2023-04-02T18:51:31.418Z,99472.13
2023-04-02T18:54:38.309Z,99479.91
2023-04-02T18:57:21.001Z,99480.72
2023-04-02T19:00:19.247Z,99489.19
2023-04-02T19:03:13.021Z,99478.03
2023-04-02T19:05:51.464Z,99486.72
2023-04-02T19:08:33.092Z,99480.75
2023-04-02T19:11:09.386Z,99477.34
2023-04-02T19:14:03.531Z,99484.16
2023-04-02T19:17:02.014Z,99486.03
2023-04-02T19:19:41.813Z,99487.56
2023-04-02T19:23:02.557Z,99483.25
2023-04-02T19:26:31.580Z,99485.25
2023-04-02T19:38:38.234Z,99489.19
2023-04-02T19:52:43.812Z,99495.00
2023-04-02T19:55:14.603Z,99492.97
2023-04-02T19:57:42.174Z,99496.38
2023-04-02T20:00:14.683Z,99503.22
2023-04-02T20:02:42.895Z,99503.22
2023-04-02T20:05:11.665Z,99509.25
2023-04-02T20:07:39.638Z,99504.91
2023-04-02T20:10:08.228Z,99505.78
2023-04-02T20:12:36.753Z,99499.81
2023-04-02T20:15:07.699Z,99502.34
2023-04-02T20:17:35.235Z,99498.09
2023-04-02T20:20:02.826Z,99498.84
2023-04-02T20:22:31.307Z,99508.38
2023-04-02T20:24:58.800Z,99507.53
2023-04-02T20:27:27.033Z,99510.97
2023-04-02T20:29:54.566Z,99513.44
2023-04-02T20:32:22.827Z,99508.13
2023-04-02T20:34:50.506Z,99504.53
2023-04-02T20:37:18.265Z,99509.75
2023-04-02T20:39:45.759Z,99505.50
2023-04-02T20:42:14.282Z,99512.53
2023-04-02T20:44:42.137Z,99509.97
2023-04-02T20:47:10.807Z,99510.84
2023-04-02T20:49:38.364Z,99518.69
2023-04-02T20:52:06.167Z,99518.72
2023-04-02T20:54:33.800Z,99517.09
2023-04-02T20:57:01.325Z,99518.69
2023-04-02T20:59:30.527Z,99510.78
2023-04-02T21:01:58.088Z,99513.53
2023-04-02T21:04:27.291Z,99513.44
2023-04-02T21:06:57.154Z,99516.75
2023-04-02T21:09:24.908Z,99504.53
2023-04-02T21:11:52.475Z,99502.59
2023-04-02T21:14:20.154Z,99503.41
2023-04-02T21:16:50.127Z,99500.84
2023-04-02T21:19:17.568Z,99497.44
2023-04-02T21:21:45.242Z,99502.81
2023-04-02T21:24:13.105Z,99509.00
2023-04-02T21:26:41.830Z,99511.59
2023-04-02T21:29:11.709Z,99506.38
2023-04-02T21:31:40.883Z,99514.16
2023-04-02T21:34:10.298Z,99508.03
2023-04-02T21:36:43.698Z,99510.69
2023-04-02T21:39:17.099Z,99513.22
2023-04-02T21:41:47.003Z,99523.53
2023-04-02T21:44:16.534Z,99522.91
2023-04-02T21:46:45.259Z,99529.06
2023-04-02T21:49:15.750Z,99530.81
2023-04-02T21:51:45.739Z,99527.38
2023-04-02T21:54:13.763Z,99530.88
2023-04-02T21:56:43.705Z,99526.63
2023-04-02T21:59:13.499Z,99534.38
2023-04-02T22:01:50.057Z,99529.38
2023-04-02T22:04:23.045Z,99537.06
2023-04-02T22:06:52.402Z,99530.16
2023-04-02T22:09:22.857Z,99532.75
2023-04-02T22:11:54.695Z,99532.75
2023-04-02T22:14:23.469Z,99533.66
2023-04-02T22:16:52.345Z,99536.00
2023-04-02T22:19:20.643Z,99524.72
2023-04-02T22:21:48.512Z,99530.69
2023-04-02T22:24:19.092Z,99532.34
2023-04-02T22:26:47.019Z,99523.94
2023-04-02T22:29:15.186Z,99522.00
2023-04-02T22:31:43.010Z,99515.88
2023-04-02T22:34:11.098Z,99527.91
2023-04-02T22:36:38.744Z,99522.59
2023-04-02T22:39:09.894Z,99528.69
2023-04-02T22:41:38.441Z,99530.41
2023-04-02T22:44:06.000Z,99526.13
2023-04-02T22:46:34.681Z,99527.84
2023-04-02T22:49:02.568Z,99528.72
2023-04-02T22:51:30.655Z,99522.75
2023-04-02T22:53:58.316Z,99521.81
2023-04-02T22:56:28.850Z,99508.75
2023-04-02T22:58:56.512Z,99527.66
2023-04-02T23:01:30.914Z,99523.38
2023-04-02T23:03:58.925Z,99525.78
2023-04-02T23:06:26.602Z,99530.97
2023-04-02T23:08:54.197Z,99530.75
2023-04-02T23:11:25.129Z,99526.19
2023-04-02T23:13:54.835Z,99529.59
2023-04-02T23:16:23.297Z,99532.19
2023-04-02T23:18:51.367Z,99535.59
2023-04-02T23:21:20.399Z,99538.19
2023-04-02T23:23:48.874Z,99538.09
2023-04-02T23:26:24.604Z,99529.66
2023-04-02T23:28:52.179Z,99538.91
2023-04-02T23:31:22.797Z,99536.34
2023-04-02T23:33:52.654Z,99532.91
2023-04-02T23:36:27.519Z,99532.22
2023-04-02T23:38:58.100Z,99536.34
2023-04-02T23:41:27.092Z,99537.97
2023-04-02T23:43:56.309Z,99534.50
2023-04-02T23:46:25.728Z,99536.25
2023-04-02T23:48:54.267Z,99540.53
2023-04-02T23:51:23.009Z,99539.66
2023-04-02T23:53:51.671Z,99538.78
2023-04-02T23:56:19.726Z,99542.19
2023-04-02T23:58:47.651Z,99540.47
